Time;durP1;ratioP1;P1;durP2;ratioP2;P2;SDS_P1;SDS_P2;PMS_P1;PMS_P2;Temp;Humidity;BMP_temperature;BMP_pressure;BME280_temperature;BME280_humidity;BME280_pressure;Samples;Min_cycle;Max_cycle;Signal;HPM_P1;HPM_P2
2022/05/19 00:00:17;;;;;;;2.00;1.90;;;22.70;52.40;;;;;;4975174;28;20225;-71
2022/05/19 00:02:44;;;;;;;2.10;2.00;;;22.70;52.40;;;;;;4975175;28;20198;-71
2022/05/19 00:05:13;;;;;;;1.90;1.80;;;22.60;52.20;;;;;;4975039;28;20198;-71
2022/05/19 00:07:41;;;;;;;2.05;1.95;;;22.60;52.20;;;;;;4974971;28;20225;-71
2022/05/19 00:10:08;;;;;;;2.22;2.00;;;22.60;52.70;;;;;;4976330;28;20194;-71
2022/05/19 00:12:35;;;;;;;2.05;1.95;;;22.60;52.20;;;;;;4976132;28;20193;-71
2022/05/19 00:15:05;;;;;;;2.10;2.00;;;22.60;52.10;;;;;;4974801;28;20237;-71
2022/05/19 00:17:32;;;;;;;2.17;1.98;;;22.60;52.30;;;;;;4974574;28;20230;-71
2022/05/19 00:19:59;;;;;;;2.00;1.90;;;22.60;52.10;;;;;;4974977;28;20300;-71
2022/05/19 00:22:26;;;;;;;1.80;1.70;;;22.60;52.10;;;;;;4975630;28;20186;-71
2022/05/19 00:24:53;;;;;;;2.20;2.10;;;22.60;52.00;;;;;;4974730;28;20343;-71
2022/05/19 00:27:20;;;;;;;2.28;2.15;;;22.50;52.00;;;;;;4975951;28;20222;-71
2022/05/19 00:29:47;;;;;;;2.10;1.92;;;22.50;52.10;;;;;;4974805;28;20273;-71
2022/05/19 00:32:19;;;;;;;1.83;1.73;;;22.50;52.10;;;;;;4974826;28;20193;-71
2022/05/19 00:34:46;;;;;;;2.20;2.10;;;22.50;52.10;;;;;;4974898;28;20233;-71
2022/05/19 00:37:13;;;;;;;2.30;2.05;;;22.50;52.20;;;;;;4975193;28;20232;-71
2022/05/19 00:39:40;;;;;;;2.25;1.98;;;22.50;52.20;;;;;;4975578;28;20208;-71
2022/05/19 00:45:11;;;;;;;2.22;2.03;;;22.40;52.10;;;;;;4935503;29;20187;-71
2022/05/19 00:47:42;;;;;;;2.63;2.05;;;22.40;52.10;;;;;;4960637;28;20269;-71
2022/05/19 00:50:13;;;;;;;2.10;2.00;;;22.40;52.20;;;;;;4974593;28;20198;-71
2022/05/19 00:52:42;;;;;;;2.88;2.33;;;22.40;52.10;;;;;;4975964;28;20725;-71
2022/05/19 00:55:11;;;;;;;1.98;1.88;;;22.40;52.30;;;;;;4974504;28;20228;-71
2022/05/19 00:57:40;;;;;;;2.38;2.17;;;22.30;52.30;;;;;;4974717;28;20710;-71
2022/05/19 01:00:09;;;;;;;2.47;2.28;;;22.30;52.30;;;;;;4975979;28;20655;-71
2022/05/19 01:02:37;;;;;;;2.10;2.00;;;22.30;52.30;;;;;;4975533;28;20194;-71
2022/05/19 01:05:06;;;;;;;2.05;1.95;;;22.30;52.40;;;;;;4974346;28;20198;-71
2022/05/19 01:07:35;;;;;;;2.60;2.40;;;22.30;52.40;;;;;;4974334;28;20241;-71
2022/05/19 01:10:03;;;;;;;2.30;2.10;;;22.20;52.50;;;;;;4975482;28;20194;-71
2022/05/19 01:12:29;;;;;;;2.33;2.10;;;22.20;52.50;;;;;;4975670;28;20202;-71
2022/05/19 01:14:57;;;;;;;2.85;1.95;;;22.20;52.40;;;;;;4974351;28;20658;-71
2022/05/19 01:17:24;;;;;;;2.17;2.05;;;22.20;52.30;;;;;;4975414;28;20265;-71
2022/05/19 01:19:54;;;;;;;2.00;1.90;;;22.20;52.30;;;;;;4974044;28;20209;-71
2022/05/19 01:22:27;;;;;;;2.10;2.00;;;22.20;52.30;;;;;;4975602;28;20559;-71
2022/05/19 01:24:58;;;;;;;2.17;2.00;;;22.20;52.40;;;;;;4974230;28;20220;-70
2022/05/19 01:27:26;;;;;;;2.30;2.10;;;22.20;52.30;;;;;;4975086;28;20212;-71
2022/05/19 01:29:54;;;;;;;2.28;2.17;;;22.20;52.40;;;;;;4973956;28;20543;-71
2022/05/19 01:32:25;;;;;;;2.35;2.15;;;22.10;52.40;;;;;;4975041;28;20218;-70
2022/05/19 01:34:52;;;;;;;2.20;2.10;;;22.10;52.30;;;;;;4973533;28;20204;-71
2022/05/19 01:37:19;;;;;;;2.30;2.10;;;22.10;52.50;;;;;;4973680;28;20208;-71
2022/05/19 01:40:03;;;;;;;2.67;2.30;;;22.10;52.50;;;;;;4973529;28;20292;-70
2022/05/19 01:42:38;;;;;;;2.35;2.15;;;22.10;52.60;;;;;;4974882;28;20645;-71
2022/05/19 01:45:09;;;;;;;2.20;2.00;;;22.10;53.20;;;;;;4973874;28;20650;-71
2022/05/19 01:47:39;;;;;;;2.08;1.98;;;22.00;52.50;;;;;;4974827;28;20238;-71
2022/05/19 01:50:08;;;;;;;2.17;2.00;;;22.00;52.50;;;;;;4973479;28;20202;-71
2022/05/19 01:52:39;;;;;;;3.05;2.20;;;22.00;52.50;;;;;;4973534;28;20576;-71
2022/05/19 01:55:09;;;;;;;2.15;1.92;;;22.00;52.50;;;;;;4973279;28;20212;-71
2022/05/19 01:57:38;;;;;;;2.65;2.45;;;22.00;52.70;;;;;;4973248;28;20598;-71
2022/05/19 02:00:07;;;;;;;2.25;2.00;;;22.00;52.60;;;;;;4973315;28;20209;-71
2022/05/19 02:02:44;;;;;;;2.03;1.90;;;22.00;52.60;;;;;;4974956;28;20205;-71
2022/05/19 02:05:18;;;;;;;2.40;2.20;;;21.90;52.70;;;;;;4973919;28;20645;-71
2022/05/19 02:07:47;;;;;;;2.30;2.10;;;21.90;52.60;;;;;;4973266;28;20267;-70
2022/05/19 02:10:15;;;;;;;2.30;2.20;;;21.90;52.60;;;;;;4974643;28;20272;-71
2022/05/19 02:12:44;;;;;;;2.65;2.33;;;21.90;52.70;;;;;;4974907;28;20280;-71
2022/05/19 02:15:13;;;;;;;2.22;2.13;;;21.90;52.70;;;;;;4973508;28;20209;-71
2022/05/19 02:17:41;;;;;;;2.78;2.00;;;21.90;52.70;;;;;;4973224;28;20237;-71
2022/05/19 02:20:11;;;;;;;2.13;2.03;;;21.80;52.60;;;;;;4973235;28;20205;-71
2022/05/19 02:22:40;;;;;;;2.45;2.25;;;21.80;52.70;;;;;;4973105;28;20214;-71
2022/05/19 02:25:11;;;;;;;2.30;2.20;;;21.80;52.60;;;;;;4973216;28;20293;-71
2022/05/19 02:27:41;;;;;;;2.22;2.03;;;21.80;52.60;;;;;;4973204;28;20233;-71
2022/05/19 02:30:12;;;;;;;2.20;2.10;;;21.80;52.60;;;;;;4974332;28;20257;-70
2022/05/19 02:32:39;;;;;;;2.28;2.17;;;21.70;52.50;;;;;;4973158;28;20198;-71
2022/05/19 02:35:07;;;;;;;2.75;2.30;;;21.70;52.40;;;;;;4973087;28;20257;-70
2022/05/19 02:37:36;;;;;;;2.35;2.15;;;21.70;52.40;;;;;;4976421;28;20224;-71
2022/05/19 02:40:04;;;;;;;2.80;2.33;;;21.80;52.50;;;;;;4982224;28;20202;-70
2022/05/19 02:42:31;;;;;;;3.45;2.10;;;21.70;52.50;;;;;;4983776;28;20244;-70
2022/05/19 02:44:58;;;;;;;2.30;2.10;;;21.70;52.40;;;;;;4975960;28;20248;-71
2022/05/19 02:47:26;;;;;;;2.15;1.90;;;21.70;52.50;;;;;;4977014;28;20277;-71
2022/05/19 02:49:53;;;;;;;2.38;2.17;;;21.70;52.50;;;;;;4976561;28;20256;-71
2022/05/19 02:52:21;;;;;;;2.55;2.33;;;21.70;52.60;;;;;;4976503;28;20198;-71
2022/05/19 02:54:48;;;;;;;2.40;2.30;;;21.70;52.60;;;;;;4977654;28;20190;-71
2022/05/19 02:57:15;;;;;;;2.70;2.05;;;21.60;52.50;;;;;;4976401;28;20580;-71
2022/05/19 02:59:42;;;;;;;2.30;2.20;;;21.70;52.60;;;;;;4976655;28;20297;-71
2022/05/19 03:02:10;;;;;;;2.20;2.10;;;21.60;52.40;;;;;;4976356;28;20225;-71
2022/05/19 03:04:38;;;;;;;2.33;2.13;;;21.70;52.60;;;;;;4976738;28;20213;-71
2022/05/19 03:07:06;;;;;;;2.05;1.95;;;21.60;52.50;;;;;;4977550;28;20194;-71
2022/05/19 03:09:33;;;;;;;2.10;2.00;;;21.60;52.50;;;;;;4976089;28;20209;-71
2022/05/19 03:12:00;;;;;;;2.40;2.20;;;21.60;52.50;;;;;;4977238;28;20190;-71
2022/05/19 03:14:27;;;;;;;2.55;2.35;;;21.60;52.50;;;;;;4976019;28;20194;-71
2022/05/19 03:16:53;;;;;;;2.10;2.00;;;21.60;52.50;;;;;;4976026;28;20216;-71
2022/05/19 03:19:21;;;;;;;2.22;2.13;;;21.60;52.60;;;;;;4976170;28;20595;-71
2022/05/19 03:21:49;;;;;;;2.22;2.10;;;21.60;52.60;;;;;;4975898;28;20226;-71
2022/05/19 03:24:16;;;;;;;2.58;2.35;;;21.60;52.40;;;;;;4975862;28;20202;-71
2022/05/19 03:26:44;;;;;;;2.85;2.13;;;21.70;52.60;;;;;;4975895;28;20206;-71
2022/05/19 03:29:11;;;;;;;2.33;2.13;;;21.70;52.70;;;;;;4975678;28;20592;-71
2022/05/19 03:31:38;;;;;;;2.00;1.90;;;21.70;52.40;;;;;;4975931;28;20209;-71
2022/05/19 03:34:05;;;;;;;2.30;2.10;;;21.80;52.30;;;;;;4975635;28;20202;-71
2022/05/19 03:36:32;;;;;;;2.40;2.20;;;21.80;52.30;;;;;;4976060;28;20201;-71
2022/05/19 03:39:01;;;;;;;2.47;2.28;;;21.80;52.10;;;;;;4975892;28;20264;-71
2022/05/19 03:41:28;;;;;;;2.30;2.10;;;21.90;52.70;;;;;;4977233;28;20293;-71
2022/05/19 03:43:55;;;;;;;2.30;2.10;;;21.90;52.00;;;;;;4975650;28;20208;-71
2022/05/19 03:46:22;;;;;;;2.40;2.20;;;21.90;51.90;;;;;;4975636;28;20720;-71
2022/05/19 03:48:49;;;;;;;2.40;2.20;;;21.90;51.90;;;;;;4977086;28;20257;-71
2022/05/19 03:51:19;;;;;;;2.40;2.20;;;21.80;51.70;;;;;;4975534;28;20201;-71
2022/05/19 03:53:46;;;;;;;2.30;2.10;;;21.90;51.70;;;;;;4976667;28;20194;-71
2022/05/19 03:56:14;;;;;;;2.25;2.10;;;21.90;51.70;;;;;;4974940;28;20198;-71
2022/05/19 03:58:41;;;;;;;2.17;2.08;;;21.80;51.70;;;;;;4975113;28;20218;-71
2022/05/19 04:01:08;;;;;;;2.03;1.92;;;21.80;51.70;;;;;;4976651;28;20678;-71
2022/05/19 04:03:35;;;;;;;2.50;2.30;;;21.80;51.70;;;;;;4975253;28;20249;-71
2022/05/19 04:06:02;;;;;;;2.53;2.33;;;21.80;51.70;;;;;;4975367;28;20229;-71
2022/05/19 04:08:30;;;;;;;2.40;2.20;;;21.80;51.70;;;;;;4976359;28;20284;-71
2022/05/19 04:10:57;;;;;;;2.10;2.00;;;21.80;51.70;;;;;;4976272;28;20563;-71
2022/05/19 04:13:26;;;;;;;2.15;2.00;;;21.80;51.70;;;;;;4974920;28;20228;-70
2022/05/19 04:15:52;;;;;;;2.17;1.98;;;21.80;51.70;;;;;;4974927;28;20386;-71
2022/05/19 04:18:20;;;;;;;2.67;2.10;;;21.80;51.70;;;;;;4975187;28;20233;-70
2022/05/19 04:20:47;;;;;;;2.28;2.17;;;21.80;51.60;;;;;;4975303;28;20209;-70
2022/05/19 04:23:13;;;;;;;2.50;1.95;;;21.80;51.60;;;;;;4976223;28;20216;-70
2022/05/19 04:25:41;;;;;;;2.55;2.00;;;21.80;51.70;;;;;;4976291;28;20194;-70
2022/05/19 04:28:08;;;;;;;2.20;1.92;;;21.90;51.70;;;;;;4974651;28;20222;-70
2022/05/19 04:30:36;;;;;;;2.22;2.03;;;21.90;51.70;;;;;;4974697;28;20202;-70
2022/05/19 04:33:04;;;;;;;2.38;2.17;;;21.90;51.70;;;;;;4975960;28;20705;-70
2022/05/19 04:35:31;;;;;;;2.10;2.00;;;21.90;51.70;;;;;;4974931;28;20293;-70
2022/05/19 04:38:00;;;;;;;2.58;2.20;;;21.90;51.70;;;;;;4974694;28;20210;-70
2022/05/19 04:40:28;;;;;;;2.20;2.10;;;21.90;51.70;;;;;;4975816;28;20205;-70
2022/05/19 04:42:55;;;;;;;3.05;2.60;;;21.90;51.70;;;;;;4974461;28;20599;-70
2022/05/19 04:45:22;;;;;;;2.45;2.25;;;22.10;52.00;;;;;;4974493;28;20205;-70
2022/05/19 04:47:50;;;;;;;2.22;2.13;;;22.20;51.90;;;;;;4974397;28;20312;-70
2022/05/19 04:50:17;;;;;;;2.20;2.10;;;22.30;51.50;;;;;;4975503;28;20198;-70
2022/05/19 04:52:45;;;;;;;2.40;2.20;;;22.50;51.30;;;;;;4974260;28;20194;-70
2022/05/19 04:55:12;;;;;;;2.30;2.10;;;22.70;51.00;;;;;;4976188;28;20222;-70
2022/05/19 04:57:39;;;;;;;2.00;1.90;;;22.80;50.70;;;;;;4974110;28;20218;-70
2022/05/19 05:00:07;;;;;;;2.15;1.80;;;23.00;50.50;;;;;;4974192;28;20198;-70
2022/05/19 05:02:36;;;;;;;2.00;1.90;;;23.10;50.10;;;;;;4975829;28;20301;-70
2022/05/19 05:05:06;;;;;;;2.58;1.98;;;23.30;50.00;;;;;;4973984;28;20206;-70
2022/05/19 05:07:34;;;;;;;3.08;2.03;;;23.30;49.80;;;;;;4974122;28;20226;-70
2022/05/19 05:10:01;;;;;;;2.30;2.10;;;23.40;49.60;;;;;;4973169;28;20194;-72
2022/05/19 05:12:28;;;;;;;2.40;2.20;;;23.50;49.50;;;;;;4974047;28;20281;-70
2022/05/19 05:14:55;;;;;;;2.35;2.10;;;23.60;49.20;;;;;;4974383;28;20201;-70
2022/05/19 05:17:23;;;;;;;2.53;2.15;;;23.80;49.20;;;;;;4974145;28;20230;-71
2022/05/19 05:19:50;;;;;;;3.05;2.03;;;23.90;48.90;;;;;;4975879;28;20200;-70
2022/05/19 05:22:20;;;;;;;2.38;1.90;;;24.10;48.80;;;;;;4975270;28;20217;-71
2022/05/19 05:24:47;;;;;;;2.38;1.83;;;24.20;48.50;;;;;;4975388;28;20202;-71
2022/05/19 05:27:13;;;;;;;2.40;2.20;;;24.30;48.30;;;;;;4974125;28;20759;-70
2022/05/19 05:29:42;;;;;;;2.28;2.08;;;24.50;48.10;;;;;;4975639;28;20186;-71
2022/05/19 05:32:10;;;;;;;2.10;2.00;;;24.50;47.80;;;;;;4973575;28;20198;-70
2022/05/19 05:34:36;;;;;;;2.20;2.00;;;24.70;47.80;;;;;;4973729;28;20553;-71
2022/05/19 05:37:06;;;;;;;2.30;2.10;;;24.70;47.60;;;;;;4973692;28;20201;-71
2022/05/19 05:39:34;;;;;;;2.38;2.20;;;24.80;47.50;;;;;;4973969;28;20208;-71
2022/05/19 05:42:02;;;;;;;2.58;2.38;;;24.90;47.40;;;;;;4973779;28;20240;-71
2022/05/19 05:44:28;;;;;;;3.08;2.17;;;24.90;47.30;;;;;;4974890;28;20276;-70
2022/05/19 05:46:56;;;;;;;2.30;2.10;;;24.90;47.20;;;;;;4974745;28;20222;-70
2022/05/19 05:49:23;;;;;;;2.10;1.90;;;24.90;47.10;;;;;;4974924;28;20214;-70
2022/05/19 05:51:50;;;;;;;2.25;2.13;;;25.00;47.00;;;;;;4974431;28;20551;-70
2022/05/19 05:54:17;;;;;;;2.50;2.13;;;25.10;46.90;;;;;;4973389;28;20198;-70
2022/05/19 05:56:45;;;;;;;3.15;2.10;;;25.10;46.70;;;;;;4973410;28;20202;-69
2022/05/19 05:59:13;;;;;;;3.22;2.08;;;25.20;46.50;;;;;;4973365;28;20222;-70
2022/05/19 06:01:40;;;;;;;2.08;1.98;;;25.30;47.00;;;;;;4973304;28;20198;-70
2022/05/19 06:04:07;;;;;;;2.95;2.35;;;25.40;46.10;;;;;;4974444;28;20659;-70
2022/05/19 06:06:34;;;;;;;1.88;1.77;;;25.50;45.80;;;;;;4974587;28;20265;-70
2022/05/19 06:09:01;;;;;;;2.45;2.00;;;25.60;45.60;;;;;;4974832;28;20710;-70
2022/05/19 06:11:28;;;;;;;3.35;2.10;;;25.70;45.50;;;;;;4974750;28;20194;-70
2022/05/19 06:13:57;;;;;;;2.30;1.85;;;25.80;45.90;;;;;;4974067;28;20202;-70
2022/05/19 06:16:24;;;;;;;2.15;1.98;;;25.90;45.10;;;;;;4973260;28;20237;-70
2022/05/19 06:18:52;;;;;;;1.90;1.77;;;26.00;44.90;;;;;;4973633;28;20241;-71
2022/05/19 06:21:18;;;;;;;1.73;1.63;;;26.10;44.70;;;;;;4976306;28;20214;-70
2022/05/19 06:23:46;;;;;;;2.00;1.90;;;26.20;44.50;;;;;;4978551;28;20213;-71
2022/05/19 06:26:13;;;;;;;2.17;1.98;;;26.20;44.10;;;;;;4977391;28;20194;-71
2022/05/19 06:28:40;;;;;;;2.22;2.00;;;26.30;44.00;;;;;;4988808;28;20221;-70
2022/05/19 06:31:08;;;;;;;2.05;1.90;;;26.40;43.90;;;;;;4997781;28;20253;-70
2022/05/19 06:33:36;;;;;;;1.80;1.70;;;26.60;43.90;;;;;;4997615;28;20226;-70
2022/05/19 06:36:04;;;;;;;1.85;1.75;;;26.60;43.60;;;;;;4993542;28;20190;-70
2022/05/19 06:38:32;;;;;;;1.90;1.80;;;26.60;43.60;;;;;;4984467;28;20293;-70
2022/05/19 06:43:40;;;;;;;2.00;1.90;;;26.80;43.40;;;;;;4978977;28;20237;-70
2022/05/19 06:46:09;;;;;;;1.80;1.70;;;26.90;43.20;;;;;;4976938;28;20194;-70
2022/05/19 06:48:35;;;;;;;1.90;1.80;;;27.00;43.00;;;;;;4978265;28;20214;-71
2022/05/19 06:51:02;;;;;;;1.83;1.73;;;27.00;42.90;;;;;;4977736;28;20567;-70
2022/05/19 06:53:29;;;;;;;1.90;1.80;;;27.10;42.80;;;;;;4977692;28;20190;-70
2022/05/19 06:55:56;;;;;;;1.92;1.73;;;27.10;42.60;;;;;;4976496;28;20304;-71
2022/05/19 06:58:23;;;;;;;1.80;1.70;;;27.20;43.10;;;;;;4976296;28;20227;-71
2022/05/19 07:00:50;;;;;;;2.00;1.90;;;27.30;42.40;;;;;;4976196;28;20218;-71
2022/05/19 07:03:19;;;;;;;1.90;1.80;;;27.30;42.20;;;;;;4977512;28;20210;-71
2022/05/19 07:05:46;;;;;;;1.90;1.80;;;27.40;42.10;;;;;;4976163;28;20206;-71
2022/05/19 07:08:14;;;;;;;1.85;1.75;;;27.50;42.10;;;;;;4976455;28;20640;-71
2022/05/19 07:10:42;;;;;;;1.58;1.48;;;27.50;41.90;;;;;;4977795;28;20194;-71
2022/05/19 07:13:09;;;;;;;1.90;1.80;;;27.60;41.80;;;;;;4976049;28;20208;-71
2022/05/19 07:15:37;;;;;;;1.83;1.70;;;27.60;41.60;;;;;;4975975;28;20229;-71
2022/05/19 07:18:04;;;;;;;2.00;1.77;;;27.70;41.60;;;;;;4976011;28;20222;-71
2022/05/19 07:20:44;;;;;;;2.00;1.90;;;27.70;41.50;;;;;;4975921;28;20256;-71
2022/05/19 07:23:14;;;;;;;1.60;1.50;;;27.80;41.40;;;;;;4977118;28;20280;-71
2022/05/19 07:25:41;;;;;;;1.80;1.70;;;27.80;41.40;;;;;;4976068;28;20198;-71
2022/05/19 07:28:08;;;;;;;1.80;1.70;;;27.90;41.30;;;;;;4975818;28;20218;-71
2022/05/19 07:30:35;;;;;;;2.10;2.00;;;27.90;41.20;;;;;;4976232;28;20658;-71
2022/05/19 07:33:06;;;;;;;1.80;1.70;;;27.90;41.10;;;;;;4975026;28;20194;-71
2022/05/19 07:35:35;;;;;;;1.80;1.70;;;28.00;41.10;;;;;;4975859;28;20194;-71
2022/05/19 07:38:02;;;;;;;1.80;1.70;;;28.00;40.90;;;;;;4976808;28;20765;-71
2022/05/19 07:40:29;;;;;;;1.83;1.73;;;28.00;40.90;;;;;;4975615;28;20256;-70
2022/05/19 07:43:35;;;;;;;1.80;1.70;;;28.10;40.80;;;;;;4975762;28;20241;-70
2022/05/19 07:45:44;;;;;;;1.60;1.50;;;28.10;40.70;;;;;;4975433;28;20229;-71
2022/05/19 07:48:11;;;;;;;1.70;1.60;;;28.10;40.60;;;;;;4975684;28;20725;-71
2022/05/19 07:50:39;;;;;;;1.73;1.63;;;28.20;40.60;;;;;;4975352;28;20201;-71
2022/05/19 07:53:06;;;;;;;1.70;1.60;;;28.20;40.50;;;;;;4975653;28;20197;-71
2022/05/19 07:55:34;;;;;;;1.85;1.70;;;28.20;40.50;;;;;;4976950;28;20197;-71
2022/05/19 07:58:00;;;;;;;1.80;1.70;;;28.20;40.90;;;;;;4976638;28;20220;-71
2022/05/19 08:00:27;;;;;;;1.63;1.52;;;28.30;40.50;;;;;;4977536;28;20197;-69
2022/05/19 08:02:55;;;;;;;1.85;1.75;;;28.30;40.30;;;;;;4976523;28;20279;-70
2022/05/19 08:05:22;;;;;;;1.85;1.75;;;28.30;40.40;;;;;;4974923;28;20198;-71
2022/05/19 08:07:50;;;;;;;1.63;1.52;;;28.30;40.50;;;;;;4975349;28;20228;-71
2022/05/19 08:10:26;;;;;;;1.90;1.80;;;28.30;40.40;;;;;;4974994;28;20201;-71
2022/05/19 08:15:38;;;;;;;1.83;1.70;;;28.40;40.40;;;;;;4974753;28;20201;-70
2022/05/19 08:18:09;;;;;;;1.73;1.63;;;28.40;40.30;;;;;;4977033;28;20230;-71
2022/05/19 08:20:39;;;;;;;1.98;1.88;;;28.50;40.30;;;;;;4975014;28;20202;-71
2022/05/19 08:23:08;;;;;;;1.98;1.88;;;28.50;40.30;;;;;;4974766;28;20218;-71
2022/05/19 08:25:35;;;;;;;1.60;1.50;;;28.50;40.30;;;;;;4975024;28;20676;-71
2022/05/19 08:28:02;;;;;;;1.95;1.75;;;28.50;40.20;;;;;;4974691;28;20574;-71
2022/05/19 08:30:30;;;;;;;2.00;1.90;;;28.50;40.10;;;;;;4975768;28;20197;-70
2022/05/19 08:32:56;;;;;;;2.13;1.73;;;28.50;40.20;;;;;;4974702;28;20208;-71
2022/05/19 08:35:24;;;;;;;1.80;1.70;;;28.50;40.30;;;;;;4974825;28;20197;-71
2022/05/19 08:37:51;;;;;;;3.13;1.80;;;28.50;40.30;;;;;;4975732;28;20209;-71
2022/05/19 08:40:20;;;;;;;1.70;1.60;;;28.50;40.20;;;;;;4974581;28;20301;-71
2022/05/19 08:42:48;;;;;;;1.42;1.40;;;28.50;40.20;;;;;;4974513;28;20698;-71
2022/05/19 08:45:21;;;;;;;1.88;1.70;;;28.50;40.20;;;;;;4974828;28;20203;-71
2022/05/19 08:47:49;;;;;;;1.80;1.70;;;28.50;40.20;;;;;;4975638;28;20245;-71
2022/05/19 08:50:25;;;;;;;1.80;1.70;;;28.50;40.20;;;;;;4977507;28;20200;-71
2022/05/19 08:52:52;;;;;;;1.80;1.70;;;28.50;40.30;;;;;;4975602;28;20189;-71
2022/05/19 08:55:21;;;;;;;1.80;1.70;;;28.50;40.40;;;;;;4980238;28;20193;-71
2022/05/19 08:57:51;;;;;;;1.77;1.67;;;28.50;40.40;;;;;;4974563;28;20299;-71
2022/05/19 09:00:20;;;;;;;2.08;1.65;;;28.50;40.50;;;;;;4974670;28;20212;-71
2022/05/19 09:02:51;;;;;;;1.92;1.83;;;28.50;40.40;;;;;;4974344;28;20245;-71
2022/05/19 09:05:29;;;;;;;1.90;1.80;;;28.50;40.40;;;;;;4975611;28;20650;-71
2022/05/19 09:08:00;;;;;;;1.85;1.75;;;28.50;40.40;;;;;;4975904;28;20220;-71
2022/05/19 09:10:40;;;;;;;1.80;1.70;;;28.40;40.40;;;;;;4974391;28;20252;-71
2022/05/19 09:13:12;;;;;;;1.90;1.80;;;28.40;40.40;;;;;;4976245;28;20173;-71
2022/05/19 09:15:38;;;;;;;1.85;1.75;;;28.40;41.10;;;;;;4974000;28;20213;-71
2022/05/19 09:18:06;;;;;;;1.70;1.60;;;28.40;40.60;;;;;;4974061;28;20613;-71
2022/05/19 09:20:36;;;;;;;1.60;1.50;;;28.40;40.60;;;;;;4975284;28;20189;-71
2022/05/19 09:23:04;;;;;;;1.60;1.50;;;28.40;40.80;;;;;;4974984;28;20197;-71
2022/05/19 09:25:33;;;;;;;1.70;1.60;;;28.30;40.70;;;;;;4975178;28;20189;-71
2022/05/19 09:28:01;;;;;;;1.70;1.60;;;28.30;40.80;;;;;;4975013;28;20264;-70
2022/05/19 09:30:33;;;;;;;1.80;1.70;;;28.30;40.70;;;;;;4973484;28;20201;-71
2022/05/19 09:33:00;;;;;;;2.20;2.00;;;28.30;40.90;;;;;;4973721;28;20224;-71
2022/05/19 09:35:31;;;;;;;1.70;1.60;;;28.20;40.90;;;;;;4973610;28;20221;-71
2022/05/19 09:38:06;;;;;;;1.77;1.67;;;28.20;41.10;;;;;;4973710;28;20214;-71
2022/05/19 09:40:36;;;;;;;1.80;1.63;;;28.20;41.20;;;;;;4973704;28;20194;-71
2022/05/19 09:43:06;;;;;;;1.80;1.70;;;28.20;41.20;;;;;;4974823;28;20243;-71
2022/05/19 09:45:38;;;;;;;1.70;1.60;;;28.20;41.30;;;;;;4973517;28;20658;-71
2022/05/19 09:48:06;;;;;;;1.70;1.60;;;28.20;41.30;;;;;;4973563;28;20225;-71
2022/05/19 09:50:37;;;;;;;1.70;1.60;;;28.10;41.30;;;;;;4973545;28;20316;-71
2022/05/19 09:53:06;;;;;;;1.77;1.67;;;28.10;41.40;;;;;;4975198;28;20194;-71
2022/05/19 09:55:39;;;;;;;1.67;1.58;;;28.10;41.50;;;;;;4972972;28;20216;-71
2022/05/19 09:58:08;;;;;;;1.60;1.52;;;28.00;41.60;;;;;;4974037;28;20235;-71
2022/05/19 10:00:37;;;;;;;1.48;1.42;;;28.00;41.70;;;;;;4973756;28;20193;-71
2022/05/19 10:03:06;;;;;;;1.70;1.60;;;27.90;41.70;;;;;;4973214;28;20245;-71
2022/05/19 10:05:37;;;;;;;1.75;1.65;;;27.90;41.80;;;;;;4973386;28;20576;-71
2022/05/19 10:08:06;;;;;;;2.00;1.80;;;27.90;41.90;;;;;;4973467;28;20260;-71
2022/05/19 10:10:35;;;;;;;1.63;1.52;;;27.80;41.90;;;;;;4974952;28;20237;-71
2022/05/19 10:13:10;;;;;;;1.70;1.60;;;27.80;42.00;;;;;;4974696;28;20190;-71
2022/05/19 10:15:44;;;;;;;2.00;1.90;;;27.80;42.10;;;;;;4974785;28;20196;-71
2022/05/19 10:18:16;;;;;;;1.80;1.70;;;27.70;42.10;;;;;;4975260;28;20244;-71
2022/05/19 10:20:46;;;;;;;1.50;1.40;;;27.70;42.30;;;;;;4978566;28;20200;-71
2022/05/19 10:23:34;;;;;;;1.70;1.60;;;27.70;42.90;;;;;;4986158;28;20225;-71
2022/05/19 10:26:14;;;;;;;1.60;1.50;;;27.70;42.30;;;;;;4985453;28;20199;-71
2022/05/19 10:31:38;;;;;;;1.80;1.60;;;27.60;42.30;;;;;;4973716;28;20670;-71
2022/05/19 10:34:32;;;;;;;1.52;1.50;;;27.60;42.30;;;;;;4973537;28;20673;-71
2022/05/19 10:37:01;;;;;;;1.77;1.67;;;27.60;42.50;;;;;;4973678;28;20209;-71
2022/05/19 10:39:42;;;;;;;1.80;1.70;;;27.60;42.50;;;;;;4974677;28;20178;-71
2022/05/19 10:42:15;;;;;;;1.70;1.60;;;27.50;42.60;;;;;;4974230;28;20197;-71
2022/05/19 10:44:57;;;;;;;1.75;1.65;;;27.50;42.60;;;;;;4973362;28;20754;-71
2022/05/19 10:47:31;;;;;;;1.65;1.55;;;27.50;42.70;;;;;;4973984;28;20236;-71
2022/05/19 10:50:12;;;;;;;1.83;1.70;;;27.40;42.70;;;;;;4973251;28;20194;-70
2022/05/19 10:52:55;;;;;;;1.70;1.60;;;27.50;42.90;;;;;;4973175;28;20224;-71
2022/05/19 10:55:24;;;;;;;1.70;1.60;;;27.40;42.90;;;;;;4972983;28;20222;-71
2022/05/19 10:58:20;;;;;;;1.90;1.80;;;27.40;43.00;;;;;;4973192;28;20312;-71
2022/05/19 11:00:56;;;;;;;1.77;1.67;;;27.30;43.00;;;;;;4973219;28;20201;-71
2022/05/19 11:04:00;;;;;;;1.67;1.58;;;27.30;43.20;;;;;;4974531;28;20744;-71
2022/05/19 11:06:49;;;;;;;1.73;1.63;;;27.30;43.20;;;;;;4969647;28;20210;-71
2022/05/19 11:09:21;;;;;;;1.90;1.77;;;27.30;43.30;;;;;;4977719;28;20217;-71
2022/05/19 11:11:58;;;;;;;1.73;1.63;;;27.20;43.30;;;;;;4976493;28;20197;-71
2022/05/19 11:14:43;;;;;;;1.70;1.60;;;27.20;43.40;;;;;;4978487;28;20244;-71
2022/05/19 11:17:13;;;;;;;1.65;1.55;;;27.20;43.50;;;;;;4981493;28;20229;-70
2022/05/19 11:19:45;;;;;;;1.52;1.45;;;27.20;43.50;;;;;;4984831;28;20193;-71
2022/05/19 11:22:14;;;;;;;1.70;1.60;;;27.20;43.50;;;;;;4981076;28;20213;-71
2022/05/19 11:27:24;;;;;;;1.70;1.60;;;27.20;43.70;;;;;;4979636;28;20222;-71
2022/05/19 11:29:54;;;;;;;1.65;1.55;;;27.20;43.70;;;;;;4976769;28;20292;-71
2022/05/19 11:32:23;;;;;;;1.50;1.40;;;27.20;43.80;;;;;;4976412;28;20206;-71
2022/05/19 11:34:52;;;;;;;1.42;1.42;;;27.10;43.70;;;;;;4977444;28;20186;-70
2022/05/19 11:37:26;;;;;;;1.60;1.50;;;27.10;43.70;;;;;;4977862;28;20206;-71
2022/05/19 11:40:02;;;;;;;1.58;1.48;;;27.10;43.80;;;;;;4975973;28;20300;-71
2022/05/19 11:42:34;;;;;;;1.65;1.55;;;27.10;43.90;;;;;;4977426;28;20212;-71
2022/05/19 11:45:04;;;;;;;1.70;1.60;;;27.10;43.90;;;;;;4977627;28;20198;-71
2022/05/19 11:55:51;;;;;;;1.80;1.70;;;27.10;44.10;;;;;;4975765;28;20658;-71
2022/05/19 11:58:20;;;;;;;1.70;1.60;;;27.10;44.20;;;;;;4977074;28;20213;-71
2022/05/19 12:00:55;;;;;;;1.58;1.48;;;27.00;44.20;;;;;;5000157;23;20209;-73
2022/05/19 12:03:24;;;;;;;1.45;1.35;;;27.00;44.30;;;;;;4956738;28;20213;-72
2022/05/19 12:05:53;;;;;;;1.80;1.70;;;27.00;44.30;;;;;;4957574;28;20191;-72
2022/05/19 12:08:23;;;;;;;1.75;1.65;;;27.00;44.40;;;;;;4956077;28;20664;-72
2022/05/19 12:10:55;;;;;;;1.60;1.50;;;26.90;44.40;;;;;;4955117;28;20253;-72
2022/05/19 12:13:25;;;;;;;1.70;1.60;;;27.00;44.50;;;;;;4938253;29;20183;-72
2022/05/19 12:15:55;;;;;;;1.70;1.60;;;27.00;44.50;;;;;;4936904;29;20210;-72
2022/05/19 12:18:36;;;;;;;1.52;1.50;;;26.90;44.60;;;;;;4937555;29;20645;-72
2022/05/19 12:21:35;;;;;;;1.80;1.70;;;26.90;44.70;;;;;;4936514;29;20286;-72
2022/05/19 12:24:07;;;;;;;1.77;1.67;;;26.80;44.80;;;;;;4894921;29;20219;-72
2022/05/19 12:26:38;;;;;;;1.92;1.83;;;26.80;44.80;;;;;;4936977;29;20209;-72
2022/05/19 12:29:16;;;;;;;1.75;1.65;;;26.80;44.90;;;;;;4936602;29;20196;-72
2022/05/19 12:31:59;;;;;;;1.80;1.70;;;26.80;45.00;;;;;;4936631;29;20262;-72
2022/05/19 12:34:31;;;;;;;1.70;1.60;;;26.70;45.00;;;;;;4937765;29;20175;-72
2022/05/19 12:37:09;;;;;;;1.70;1.60;;;26.70;45.10;;;;;;4936457;29;20195;-73
2022/05/19 12:39:44;;;;;;;1.60;1.50;;;26.70;45.20;;;;;;4936112;29;20724;-72
2022/05/19 12:42:19;;;;;;;1.60;1.50;;;26.70;45.20;;;;;;4936214;29;20229;-72
2022/05/19 12:44:50;;;;;;;1.70;1.60;;;26.70;45.40;;;;;;4936412;29;20225;-72
2022/05/19 12:47:23;;;;;;;1.75;1.65;;;26.60;45.30;;;;;;4937963;29;20187;-72
2022/05/19 12:50:25;;;;;;;1.70;1.60;;;26.60;45.30;;;;;;4936356;29;20199;-72
2022/05/19 12:53:05;;;;;;;1.60;1.50;;;26.60;45.40;;;;;;4936374;29;20308;-72
2022/05/19 12:55:50;;;;;;;1.90;1.80;;;26.70;46.00;;;;;;4936324;29;20198;-72
2022/05/19 12:58:48;;;;;;;1.67;1.60;;;26.70;45.40;;;;;;4937785;29;20211;-72
2022/05/19 13:01:16;;;;;;;1.70;1.60;;;26.70;45.40;;;;;;4937590;29;20219;-72
2022/05/19 13:03:48;;;;;;;1.80;1.70;;;26.70;45.40;;;;;;4936096;29;20195;-72
2022/05/19 13:06:16;;;;;;;1.90;1.80;;;26.70;45.40;;;;;;4936120;29;20218;-72
2022/05/19 13:08:52;;;;;;;1.73;1.63;;;26.70;45.50;;;;;;4935911;29;20208;-73
2022/05/19 13:11:22;;;;;;;1.45;1.40;;;26.70;45.50;;;;;;4935689;29;20230;-72
2022/05/19 13:13:53;;;;;;;1.90;1.80;;;26.60;45.50;;;;;;4935589;29;20195;-72
2022/05/19 13:16:21;;;;;;;1.80;1.70;;;26.60;45.50;;;;;;4936804;29;20183;-72
2022/05/19 13:18:51;;;;;;;1.50;1.50;;;26.60;45.60;;;;;;4935865;29;20203;-72
2022/05/19 13:21:21;;;;;;;1.60;1.50;;;26.60;45.60;;;;;;4935583;29;20227;-72
2022/05/19 13:23:49;;;;;;;1.65;1.55;;;26.60;45.60;;;;;;4935294;29;20246;-72